sensor_id;sensor_type;location;lat;lon;timestamp;P1;durP1;ratioP1;P2;durP2;ratioP2
21903;SDS011;11116;51.554;7.812;2022-08-04T00:00:21;5.38;;;2.88;;
21903;SDS011;11116;51.554;7.812;2022-08-04T00:02:51;3.53;;;2.08;;
21903;SDS011;11116;51.554;7.812;2022-08-04T00:05:34;7.80;;;2.00;;
21903;SDS011;11116;51.554;7.812;2022-08-04T00:08:14;5.50;;;2.22;;
21903;SDS011;11116;51.554;7.812;2022-08-04T00:10:49;7.85;;;2.08;;
21903;SDS011;11116;51.554;7.812;2022-08-04T00:13:21;10.63;;;2.42;;
21903;SDS011;11116;51.554;7.812;2022-08-04T00:15:51;8.30;;;2.80;;
21903;SDS011;11116;51.554;7.812;2022-08-04T00:18:21;9.18;;;2.15;;
21903;SDS011;11116;51.554;7.812;2022-08-04T00:20:59;9.98;;;2.45;;
21903;SDS011;11116;51.554;7.812;2022-08-04T00:23:31;9.75;;;1.85;;
21903;SDS011;11116;51.554;7.812;2022-08-04T00:26:00;5.57;;;2.05;;
21903;SDS011;11116;51.554;7.812;2022-08-04T00:28:28;4.47;;;1.90;;
21903;SDS011;11116;51.554;7.812;2022-08-04T00:30:57;5.30;;;2.45;;
21903;SDS011;11116;51.554;7.812;2022-08-04T00:33:24;6.00;;;2.20;;
21903;SDS011;11116;51.554;7.812;2022-08-04T00:35:51;5.05;;;2.70;;
21903;SDS011;11116;51.554;7.812;2022-08-04T00:38:20;4.35;;;2.50;;
21903;SDS011;11116;51.554;7.812;2022-08-04T00:40:49;5.47;;;2.05;;
21903;SDS011;11116;51.554;7.812;2022-08-04T00:43:28;5.57;;;3.10;;
21903;SDS011;11116;51.554;7.812;2022-08-04T00:46:06;6.95;;;2.78;;
21903;SDS011;11116;51.554;7.812;2022-08-04T00:49:20;5.72;;;2.80;;
21903;SDS011;11116;51.554;7.812;2022-08-04T00:52:12;5.60;;;2.90;;
21903;SDS011;11116;51.554;7.812;2022-08-04T00:54:55;4.57;;;2.38;;
21903;SDS011;11116;51.554;7.812;2022-08-04T00:57:35;6.13;;;3.03;;
21903;SDS011;11116;51.554;7.812;2022-08-04T01:00:16;6.15;;;2.60;;
21903;SDS011;11116;51.554;7.812;2022-08-04T01:02:48;4.85;;;2.45;;
21903;SDS011;11116;51.554;7.812;2022-08-04T01:05:29;8.55;;;3.08;;
21903;SDS011;11116;51.554;7.812;2022-08-04T01:08:05;7.97;;;2.42;;
21903;SDS011;11116;51.554;7.812;2022-08-04T01:10:47;4.63;;;1.88;;
21903;SDS011;11116;51.554;7.812;2022-08-04T01:13:32;5.50;;;2.90;;
21903;SDS011;11116;51.554;7.812;2022-08-04T01:16:08;5.53;;;2.85;;
21903;SDS011;11116;51.554;7.812;2022-08-04T01:18:41;10.95;;;3.10;;
21903;SDS011;11116;51.554;7.812;2022-08-04T01:21:27;4.40;;;2.70;;
21903;SDS011;11116;51.554;7.812;2022-08-04T01:27:05;6.25;;;3.20;;
21903;SDS011;11116;51.554;7.812;2022-08-04T01:29:39;8.48;;;3.50;;
21903;SDS011;11116;51.554;7.812;2022-08-04T01:32:18;4.80;;;3.17;;
21903;SDS011;11116;51.554;7.812;2022-08-04T01:34:46;5.45;;;3.38;;
21903;SDS011;11116;51.554;7.812;2022-08-04T01:37:20;5.00;;;3.13;;
21903;SDS011;11116;51.554;7.812;2022-08-04T01:39:59;5.53;;;3.55;;
21903;SDS011;11116;51.554;7.812;2022-08-04T01:42:31;7.40;;;2.90;;
21903;SDS011;11116;51.554;7.812;2022-08-04T01:45:02;7.95;;;3.70;;
21903;SDS011;11116;51.554;7.812;2022-08-04T01:47:31;5.47;;;3.17;;
21903;SDS011;11116;51.554;7.812;2022-08-04T01:50:01;4.15;;;3.20;;
21903;SDS011;11116;51.554;7.812;2022-08-04T01:52:32;5.35;;;3.10;;
21903;SDS011;11116;51.554;7.812;2022-08-04T01:55:00;8.60;;;3.42;;
21903;SDS011;11116;51.554;7.812;2022-08-04T01:57:30;7.82;;;3.88;;
21903;SDS011;11116;51.554;7.812;2022-08-04T01:59:59;5.03;;;3.00;;
21903;SDS011;11116;51.554;7.812;2022-08-04T02:02:29;5.55;;;3.35;;
21903;SDS011;11116;51.554;7.812;2022-08-04T02:04:56;4.15;;;3.45;;
21903;SDS011;11116;51.554;7.812;2022-08-04T02:07:27;4.95;;;3.75;;
21903;SDS011;11116;51.554;7.812;2022-08-04T02:10:04;5.07;;;4.05;;
21903;SDS011;11116;51.554;7.812;2022-08-04T02:12:36;11.65;;;4.57;;
21903;SDS011;11116;51.554;7.812;2022-08-04T02:15:19;9.90;;;4.30;;
21903;SDS011;11116;51.554;7.812;2022-08-04T02:17:58;8.52;;;3.88;;
21903;SDS011;11116;51.554;7.812;2022-08-04T02:20:28;5.78;;;3.70;;
21903;SDS011;11116;51.554;7.812;2022-08-04T02:23:00;5.68;;;3.67;;
21903;SDS011;11116;51.554;7.812;2022-08-04T02:25:31;6.35;;;3.65;;
21903;SDS011;11116;51.554;7.812;2022-08-04T02:28:06;9.77;;;3.70;;
21903;SDS011;11116;51.554;7.812;2022-08-04T02:30:42;8.65;;;3.72;;
21903;SDS011;11116;51.554;7.812;2022-08-04T02:33:17;9.75;;;3.50;;
21903;SDS011;11116;51.554;7.812;2022-08-04T02:35:56;5.75;;;4.07;;
21903;SDS011;11116;51.554;7.812;2022-08-04T02:38:29;5.72;;;4.28;;
21903;SDS011;11116;51.554;7.812;2022-08-04T02:41:08;9.32;;;4.18;;
21903;SDS011;11116;51.554;7.812;2022-08-04T02:43:36;6.90;;;4.53;;
21903;SDS011;11116;51.554;7.812;2022-08-04T02:46:08;9.65;;;4.50;;
21903;SDS011;11116;51.554;7.812;2022-08-04T02:48:36;7.93;;;4.03;;
21903;SDS011;11116;51.554;7.812;2022-08-04T02:51:05;8.35;;;3.97;;
21903;SDS011;11116;51.554;7.812;2022-08-04T02:53:33;8.50;;;4.43;;
21903;SDS011;11116;51.554;7.812;2022-08-04T02:56:03;4.50;;;4.07;;
21903;SDS011;11116;51.554;7.812;2022-08-04T02:58:33;10.70;;;5.05;;
21903;SDS011;11116;51.554;7.812;2022-08-04T03:01:01;6.68;;;3.88;;
21903;SDS011;11116;51.554;7.812;2022-08-04T03:03:33;9.43;;;3.88;;
21903;SDS011;11116;51.554;7.812;2022-08-04T03:06:26;6.45;;;3.63;;
21903;SDS011;11116;51.554;7.812;2022-08-04T03:12:28;8.60;;;4.15;;
21903;SDS011;11116;51.554;7.812;2022-08-04T03:15:29;5.30;;;3.42;;
21903;SDS011;11116;51.554;7.812;2022-08-04T03:18:20;7.43;;;4.05;;
21903;SDS011;11116;51.554;7.812;2022-08-04T03:24:07;8.88;;;4.18;;
21903;SDS011;11116;51.554;7.812;2022-08-04T03:27:16;5.95;;;4.10;;
21903;SDS011;11116;51.554;7.812;2022-08-04T03:30:04;5.15;;;3.85;;
21903;SDS011;11116;51.554;7.812;2022-08-04T03:42:24;5.82;;;3.70;;
21903;SDS011;11116;51.554;7.812;2022-08-04T03:45:16;8.48;;;4.10;;
21903;SDS011;11116;51.554;7.812;2022-08-04T03:51:25;5.82;;;4.10;;
21903;SDS011;11116;51.554;7.812;2022-08-04T03:54:24;11.40;;;5.20;;
21903;SDS011;11116;51.554;7.812;2022-08-04T03:57:08;9.85;;;4.65;;
21903;SDS011;11116;51.554;7.812;2022-08-04T04:00:00;6.95;;;3.85;;
21903;SDS011;11116;51.554;7.812;2022-08-04T04:06:16;5.78;;;3.95;;
21903;SDS011;11116;51.554;7.812;2022-08-04T04:12:29;9.90;;;5.03;;
21903;SDS011;11116;51.554;7.812;2022-08-04T04:15:19;8.18;;;4.40;;
21903;SDS011;11116;51.554;7.812;2022-08-04T04:21:11;6.10;;;3.75;;
21903;SDS011;11116;51.554;7.812;2022-08-04T04:24:00;8.68;;;3.92;;
21903;SDS011;11116;51.554;7.812;2022-08-04T04:26:56;15.65;;;4.63;;
21903;SDS011;11116;51.554;7.812;2022-08-04T04:29:43;7.43;;;4.50;;
21903;SDS011;11116;51.554;7.812;2022-08-04T04:32:21;9.57;;;4.00;;
21903;SDS011;11116;51.554;7.812;2022-08-04T04:34:53;10.05;;;3.90;;
21903;SDS011;11116;51.554;7.812;2022-08-04T04:37:49;12.77;;;4.45;;
21903;SDS011;11116;51.554;7.812;2022-08-04T04:40:27;10.75;;;4.45;;
21903;SDS011;11116;51.554;7.812;2022-08-04T04:43:17;7.78;;;3.72;;
21903;SDS011;11116;51.554;7.812;2022-08-04T04:46:02;9.07;;;3.70;;
21903;SDS011;11116;51.554;7.812;2022-08-04T04:48:33;7.60;;;3.72;;
21903;SDS011;11116;51.554;7.812;2022-08-04T04:51:09;7.40;;;4.05;;
21903;SDS011;11116;51.554;7.812;2022-08-04T04:53:46;10.68;;;4.35;;
21903;SDS011;11116;51.554;7.812;2022-08-04T04:56:22;8.57;;;3.83;;
21903;SDS011;11116;51.554;7.812;2022-08-04T04:58:54;5.95;;;3.28;;
21903;SDS011;11116;51.554;7.812;2022-08-04T05:01:38;10.13;;;3.90;;
21903;SDS011;11116;51.554;7.812;2022-08-04T05:04:35;14.23;;;4.35;;
21903;SDS011;11116;51.554;7.812;2022-08-04T05:07:41;7.85;;;4.90;;
21903;SDS011;11116;51.554;7.812;2022-08-04T05:10:38;6.57;;;4.22;;
21903;SDS011;11116;51.554;7.812;2022-08-04T05:16:02;13.57;;;4.50;;
21903;SDS011;11116;51.554;7.812;2022-08-04T05:18:37;12.50;;;4.70;;
21903;SDS011;11116;51.554;7.812;2022-08-04T05:21:23;9.15;;;4.68;;
21903;SDS011;11116;51.554;7.812;2022-08-04T05:23:59;13.35;;;5.10;;
21903;SDS011;11116;51.554;7.812;2022-08-04T05:26:30;10.70;;;4.35;;
21903;SDS011;11116;51.554;7.812;2022-08-04T05:29:15;17.85;;;5.03;;
21903;SDS011;11116;51.554;7.812;2022-08-04T05:31:48;13.65;;;4.90;;
21903;SDS011;11116;51.554;7.812;2022-08-04T05:34:20;15.48;;;4.40;;
21903;SDS011;11116;51.554;7.812;2022-08-04T05:36:50;10.90;;;4.65;;
21903;SDS011;11116;51.554;7.812;2022-08-04T05:39:23;15.27;;;4.30;;
21903;SDS011;11116;51.554;7.812;2022-08-04T05:41:51;11.00;;;4.30;;
21903;SDS011;11116;51.554;7.812;2022-08-04T05:44:19;11.65;;;4.60;;
21903;SDS011;11116;51.554;7.812;2022-08-04T05:46:48;6.88;;;3.78;;
21903;SDS011;11116;51.554;7.812;2022-08-04T05:49:17;13.23;;;5.13;;
21903;SDS011;11116;51.554;7.812;2022-08-04T05:51:47;8.63;;;4.30;;
21903;SDS011;11116;51.554;7.812;2022-08-04T05:54:15;5.75;;;4.10;;
21903;SDS011;11116;51.554;7.812;2022-08-04T05:56:45;12.77;;;3.70;;
21903;SDS011;11116;51.554;7.812;2022-08-04T05:59:13;9.30;;;4.35;;
21903;SDS011;11116;51.554;7.812;2022-08-04T06:01:42;6.53;;;3.83;;
21903;SDS011;11116;51.554;7.812;2022-08-04T06:04:11;8.88;;;3.78;;
21903;SDS011;11116;51.554;7.812;2022-08-04T06:06:39;9.60;;;3.67;;
21903;SDS011;11116;51.554;7.812;2022-08-04T06:09:09;6.57;;;3.42;;
21903;SDS011;11116;51.554;7.812;2022-08-04T06:11:36;4.30;;;3.22;;
21903;SDS011;11116;51.554;7.812;2022-08-04T06:14:06;12.95;;;3.42;;
21903;SDS011;11116;51.554;7.812;2022-08-04T06:16:37;3.63;;;2.70;;
21903;SDS011;11116;51.554;7.812;2022-08-04T06:19:05;5.25;;;3.10;;
21903;SDS011;11116;51.554;7.812;2022-08-04T06:21:34;10.40;;;3.05;;
21903;SDS011;11116;51.554;7.812;2022-08-04T06:24:04;7.15;;;2.90;;
21903;SDS011;11116;51.554;7.812;2022-08-04T06:26:36;6.63;;;3.63;;
21903;SDS011;11116;51.554;7.812;2022-08-04T06:29:04;6.22;;;2.97;;
21903;SDS011;11116;51.554;7.812;2022-08-04T06:31:39;6.70;;;3.40;;
21903;SDS011;11116;51.554;7.812;2022-08-04T06:34:11;5.80;;;2.72;;
21903;SDS011;11116;51.554;7.812;2022-08-04T06:36:40;5.88;;;2.97;;
21903;SDS011;11116;51.554;7.812;2022-08-04T06:39:08;8.27;;;3.45;;
21903;SDS011;11116;51.554;7.812;2022-08-04T06:41:37;5.15;;;2.53;;
21903;SDS011;11116;51.554;7.812;2022-08-04T06:44:07;4.50;;;2.67;;
21903;SDS011;11116;51.554;7.812;2022-08-04T06:46:36;10.65;;;2.53;;
21903;SDS011;11116;51.554;7.812;2022-08-04T06:49:05;3.13;;;2.40;;
21903;SDS011;11116;51.554;7.812;2022-08-04T06:51:33;4.78;;;2.40;;
21903;SDS011;11116;51.554;7.812;2022-08-04T06:54:02;3.63;;;2.47;;
21903;SDS011;11116;51.554;7.812;2022-08-04T06:56:30;5.95;;;3.50;;
21903;SDS011;11116;51.554;7.812;2022-08-04T06:59:01;2.72;;;2.53;;
21903;SDS011;11116;51.554;7.812;2022-08-04T07:01:29;4.88;;;2.70;;
21903;SDS011;11116;51.554;7.812;2022-08-04T07:03:57;5.72;;;2.60;;
21903;SDS011;11116;51.554;7.812;2022-08-04T07:06:25;3.72;;;2.70;;
21903;SDS011;11116;51.554;7.812;2022-08-04T07:08:52;12.45;;;2.83;;
21903;SDS011;11116;51.554;7.812;2022-08-04T07:11:20;6.60;;;3.00;;
21903;SDS011;11116;51.554;7.812;2022-08-04T07:13:48;3.17;;;2.75;;
21903;SDS011;11116;51.554;7.812;2022-08-04T07:16:17;7.65;;;2.15;;
21903;SDS011;11116;51.554;7.812;2022-08-04T07:18:47;5.25;;;2.92;;
21903;SDS011;11116;51.554;7.812;2022-08-04T07:21:18;3.85;;;2.50;;
21903;SDS011;11116;51.554;7.812;2022-08-04T07:23:47;2.78;;;2.58;;
21903;SDS011;11116;51.554;7.812;2022-08-04T07:26:14;7.55;;;1.98;;
21903;SDS011;11116;51.554;7.812;2022-08-04T07:28:43;10.63;;;3.33;;
21903;SDS011;11116;51.554;7.812;2022-08-04T07:31:10;7.93;;;2.30;;
21903;SDS011;11116;51.554;7.812;2022-08-04T07:33:42;6.68;;;2.35;;
21903;SDS011;11116;51.554;7.812;2022-08-04T07:36:10;9.63;;;3.45;;
21903;SDS011;11116;51.554;7.812;2022-08-04T07:38:38;8.13;;;2.63;;
21903;SDS011;11116;51.554;7.812;2022-08-04T07:41:06;9.82;;;3.50;;
21903;SDS011;11116;51.554;7.812;2022-08-04T07:43:34;3.95;;;2.50;;
21903;SDS011;11116;51.554;7.812;2022-08-04T07:46:02;8.80;;;2.55;;
21903;SDS011;11116;51.554;7.812;2022-08-04T07:48:29;8.60;;;2.72;;
21903;SDS011;11116;51.554;7.812;2022-08-04T07:50:58;5.75;;;2.30;;
21903;SDS011;11116;51.554;7.812;2022-08-04T07:53:26;6.88;;;2.83;;
21903;SDS011;11116;51.554;7.812;2022-08-04T07:55:53;3.45;;;2.08;;
21903;SDS011;11116;51.554;7.812;2022-08-04T07:58:21;5.43;;;2.90;;
21903;SDS011;11116;51.554;7.812;2022-08-04T08:00:48;4.45;;;2.55;;
21903;SDS011;11116;51.554;7.812;2022-08-04T08:03:15;3.65;;;2.63;;
21903;SDS011;11116;51.554;7.812;2022-08-04T08:05:44;4.68;;;2.50;;
21903;SDS011;11116;51.554;7.812;2022-08-04T08:08:12;3.83;;;2.30;;
21903;SDS011;11116;51.554;7.812;2022-08-04T08:10:44;4.20;;;2.78;;
21903;SDS011;11116;51.554;7.812;2022-08-04T08:13:12;2.58;;;2.20;;
21903;SDS011;11116;51.554;7.812;2022-08-04T08:15:40;6.28;;;2.50;;
21903;SDS011;11116;51.554;7.812;2022-08-04T08:18:09;3.65;;;2.40;;
21903;SDS011;11116;51.554;7.812;2022-08-04T08:20:36;2.42;;;2.17;;
21903;SDS011;11116;51.554;7.812;2022-08-04T08:23:03;2.92;;;2.10;;
21903;SDS011;11116;51.554;7.812;2022-08-04T08:25:34;2.95;;;2.17;;
21903;SDS011;11116;51.554;7.812;2022-08-04T08:28:01;2.42;;;2.10;;
21903;SDS011;11116;51.554;7.812;2022-08-04T08:30:30;1.80;;;1.70;;
21903;SDS011;11116;51.554;7.812;2022-08-04T08:33:02;4.97;;;1.80;;
21903;SDS011;11116;51.554;7.812;2022-08-04T08:35:33;7.13;;;2.00;;
21903;SDS011;11116;51.554;7.812;2022-08-04T08:38:06;2.55;;;2.00;;
21903;SDS011;11116;51.554;7.812;2022-08-04T08:40:43;3.05;;;1.92;;
21903;SDS011;11116;51.554;7.812;2022-08-04T08:43:25;2.22;;;1.90;;
21903;SDS011;11116;51.554;7.812;2022-08-04T08:46:19;2.38;;;2.17;;
21903;SDS011;11116;51.554;7.812;2022-08-04T08:49:01;2.00;;;1.70;;
21903;SDS011;11116;51.554;7.812;2022-08-04T08:51:52;2.78;;;2.05;;
21903;SDS011;11116;51.554;7.812;2022-08-04T08:54:29;3.13;;;1.65;;
21903;SDS011;11116;51.554;7.812;2022-08-04T08:57:24;5.55;;;1.77;;
21903;SDS011;11116;51.554;7.812;2022-08-04T09:00:06;3.05;;;1.80;;
21903;SDS011;11116;51.554;7.812;2022-08-04T09:05:44;1.70;;;1.42;;
21903;SDS011;11116;51.554;7.812;2022-08-04T09:08:29;2.72;;;1.67;;
21903;SDS011;11116;51.554;7.812;2022-08-04T09:11:08;2.53;;;1.67;;
21903;SDS011;11116;51.554;7.812;2022-08-04T09:13:42;3.45;;;2.00;;
21903;SDS011;11116;51.554;7.812;2022-08-04T09:16:15;2.67;;;1.90;;
21903;SDS011;11116;51.554;7.812;2022-08-04T09:18:47;4.80;;;1.83;;
21903;SDS011;11116;51.554;7.812;2022-08-04T09:21:22;1.73;;;1.63;;
21903;SDS011;11116;51.554;7.812;2022-08-04T09:24:02;3.88;;;1.85;;
21903;SDS011;11116;51.554;7.812;2022-08-04T09:26:36;3.13;;;1.80;;
21903;SDS011;11116;51.554;7.812;2022-08-04T09:29:13;5.88;;;1.98;;
21903;SDS011;11116;51.554;7.812;2022-08-04T09:31:45;1.88;;;1.65;;
21903;SDS011;11116;51.554;7.812;2022-08-04T09:34:19;4.00;;;1.83;;
21903;SDS011;11116;51.554;7.812;2022-08-04T09:36:55;3.58;;;1.77;;
21903;SDS011;11116;51.554;7.812;2022-08-04T09:39:30;3.17;;;1.65;;
21903;SDS011;11116;51.554;7.812;2022-08-04T09:42:11;3.85;;;1.52;;
21903;SDS011;11116;51.554;7.812;2022-08-04T09:44:50;2.83;;;1.60;;
21903;SDS011;11116;51.554;7.812;2022-08-04T09:47:25;2.30;;;2.10;;
21903;SDS011;11116;51.554;7.812;2022-08-04T09:50:01;2.40;;;1.70;;
21903;SDS011;11116;51.554;7.812;2022-08-04T09:52:40;2.35;;;1.90;;
21903;SDS011;11116;51.554;7.812;2022-08-04T09:55:18;2.78;;;1.77;;
21903;SDS011;11116;51.554;7.812;2022-08-04T09:58:00;4.50;;;1.77;;
21903;SDS011;11116;51.554;7.812;2022-08-04T10:00:35;3.65;;;1.70;;
21903;SDS011;11116;51.554;7.812;2022-08-04T10:03:09;3.45;;;2.10;;
21903;SDS011;11116;51.554;7.812;2022-08-04T10:05:41;1.45;;;1.35;;
21903;SDS011;11116;51.554;7.812;2022-08-04T10:08:17;4.15;;;1.60;;
21903;SDS011;11116;51.554;7.812;2022-08-04T10:10:55;1.60;;;1.50;;
21903;SDS011;11116;51.554;7.812;2022-08-04T10:13:34;3.75;;;1.50;;
21903;SDS011;11116;51.554;7.812;2022-08-04T10:16:15;3.55;;;1.63;;
21903;SDS011;11116;51.554;7.812;2022-08-04T10:18:58;7.20;;;1.67;;
21903;SDS011;11116;51.554;7.812;2022-08-04T10:21:35;1.80;;;1.25;;
21903;SDS011;11116;51.554;7.812;2022-08-04T10:24:14;3.15;;;1.60;;
21903;SDS011;11116;51.554;7.812;2022-08-04T10:26:57;1.67;;;1.17;;
21903;SDS011;11116;51.554;7.812;2022-08-04T10:29:37;3.05;;;1.40;;
21903;SDS011;11116;51.554;7.812;2022-08-04T10:32:13;2.85;;;1.17;;
21903;SDS011;11116;51.554;7.812;2022-08-04T10:34:47;5.80;;;1.48;;
21903;SDS011;11116;51.554;7.812;2022-08-04T10:37:27;2.28;;;1.27;;
21903;SDS011;11116;51.554;7.812;2022-08-04T10:39:58;2.25;;;1.55;;
21903;SDS011;11116;51.554;7.812;2022-08-04T10:42:49;2.20;;;1.00;;
21903;SDS011;11116;51.554;7.812;2022-08-04T10:45:23;2.03;;;1.30;;
21903;SDS011;11116;51.554;7.812;2022-08-04T10:48:00;5.22;;;1.10;;
21903;SDS011;11116;51.554;7.812;2022-08-04T10:50:34;2.60;;;1.30;;
21903;SDS011;11116;51.554;7.812;2022-08-04T10:53:04;1.40;;;1.30;;
21903;SDS011;11116;51.554;7.812;2022-08-04T10:55:40;2.92;;;1.60;;
21903;SDS011;11116;51.554;7.812;2022-08-04T10:58:13;5.28;;;1.63;;
21903;SDS011;11116;51.554;7.812;2022-08-04T11:00:44;4.45;;;1.35;;
21903;SDS011;11116;51.554;7.812;2022-08-04T11:03:18;5.45;;;1.05;;
21903;SDS011;11116;51.554;7.812;2022-08-04T11:05:49;3.47;;;1.08;;
21903;SDS011;11116;51.554;7.812;2022-08-04T11:08:20;1.10;;;1.00;;
21903;SDS011;11116;51.554;7.812;2022-08-04T11:10:57;1.23;;;1.00;;
21903;SDS011;11116;51.554;7.812;2022-08-04T11:13:28;3.20;;;1.60;;
21903;SDS011;11116;51.554;7.812;2022-08-04T11:16:01;3.65;;;1.20;;
21903;SDS011;11116;51.554;7.812;2022-08-04T11:18:33;2.15;;;1.20;;
21903;SDS011;11116;51.554;7.812;2022-08-04T11:21:13;2.42;;;1.42;;
21903;SDS011;11116;51.554;7.812;2022-08-04T11:23:46;1.42;;;1.15;;
21903;SDS011;11116;51.554;7.812;2022-08-04T11:26:28;2.38;;;1.13;;
21903;SDS011;11116;51.554;7.812;2022-08-04T11:29:11;1.02;;;0.88;;
21903;SDS011;11116;51.554;7.812;2022-08-04T11:31:48;1.95;;;0.80;;
21903;SDS011;11116;51.554;7.812;2022-08-04T11:34:18;1.17;;;0.90;;
21903;SDS011;11116;51.554;7.812;2022-08-04T11:36:48;1.23;;;1.15;;
21903;SDS011;11116;51.554;7.812;2022-08-04T11:39:22;1.55;;;1.45;;
21903;SDS011;11116;51.554;7.812;2022-08-04T11:41:56;3.95;;;1.45;;
21903;SDS011;11116;51.554;7.812;2022-08-04T11:44:29;1.33;;;1.23;;
21903;SDS011;11116;51.554;7.812;2022-08-04T11:47:02;3.38;;;1.60;;
21903;SDS011;11116;51.554;7.812;2022-08-04T11:49:39;1.75;;;1.20;;
21903;SDS011;11116;51.554;7.812;2022-08-04T11:52:09;3.00;;;1.13;;
21903;SDS011;11116;51.554;7.812;2022-08-04T11:54:39;7.28;;;1.60;;
21903;SDS011;11116;51.554;7.812;2022-08-04T11:57:07;2.53;;;1.45;;
21903;SDS011;11116;51.554;7.812;2022-08-04T11:59:35;2.03;;;1.50;;
21903;SDS011;11116;51.554;7.812;2022-08-04T12:02:16;3.92;;;1.30;;
21903;SDS011;11116;51.554;7.812;2022-08-04T12:04:55;1.67;;;1.13;;
21903;SDS011;11116;51.554;7.812;2022-08-04T12:07:28;3.60;;;1.60;;
21903;SDS011;11116;51.554;7.812;2022-08-04T12:10:08;2.35;;;1.45;;
21903;SDS011;11116;51.554;7.812;2022-08-04T12:12:45;1.55;;;1.33;;
21903;SDS011;11116;51.554;7.812;2022-08-04T12:15:22;3.95;;;1.63;;
21903;SDS011;11116;51.554;7.812;2022-08-04T12:17:53;4.70;;;1.85;;
21903;SDS011;11116;51.554;7.812;2022-08-04T12:20:28;2.63;;;1.52;;
21903;SDS011;11116;51.554;7.812;2022-08-04T12:22:59;2.75;;;1.42;;
21903;SDS011;11116;51.554;7.812;2022-08-04T12:25:29;3.58;;;2.10;;
21903;SDS011;11116;51.554;7.812;2022-08-04T12:27:59;7.82;;;1.40;;
21903;SDS011;11116;51.554;7.812;2022-08-04T12:30:33;1.73;;;1.35;;
21903;SDS011;11116;51.554;7.812;2022-08-04T12:33:04;3.80;;;1.80;;
21903;SDS011;11116;51.554;7.812;2022-08-04T12:35:39;3.13;;;1.33;;
21903;SDS011;11116;51.554;7.812;2022-08-04T12:38:11;1.75;;;1.65;;
21903;SDS011;11116;51.554;7.812;2022-08-04T12:40:40;3.80;;;1.80;;
21903;SDS011;11116;51.554;7.812;2022-08-04T12:43:12;1.70;;;1.55;;
21903;SDS011;11116;51.554;7.812;2022-08-04T12:45:48;6.10;;;1.90;;
21903;SDS011;11116;51.554;7.812;2022-08-04T12:48:19;4.30;;;1.95;;
21903;SDS011;11116;51.554;7.812;2022-08-04T12:50:50;6.28;;;1.80;;
21903;SDS011;11116;51.554;7.812;2022-08-04T12:53:19;6.57;;;1.90;;
21903;SDS011;11116;51.554;7.812;2022-08-04T12:55:49;3.92;;;2.33;;
21903;SDS011;11116;51.554;7.812;2022-08-04T12:58:19;3.70;;;1.90;;
21903;SDS011;11116;51.554;7.812;2022-08-04T13:00:50;10.75;;;2.25;;
21903;SDS011;11116;51.554;7.812;2022-08-04T13:03:19;2.80;;;1.77;;
21903;SDS011;11116;51.554;7.812;2022-08-04T13:05:53;4.63;;;1.52;;
21903;SDS011;11116;51.554;7.812;2022-08-04T13:08:21;8.00;;;2.28;;
21903;SDS011;11116;51.554;7.812;2022-08-04T13:10:50;3.72;;;2.33;;
21903;SDS011;11116;51.554;7.812;2022-08-04T13:13:19;4.90;;;2.20;;
21903;SDS011;11116;51.554;7.812;2022-08-04T13:15:57;5.18;;;2.35;;
21903;SDS011;11116;51.554;7.812;2022-08-04T13:18:26;5.60;;;1.60;;
21903;SDS011;11116;51.554;7.812;2022-08-04T13:20:56;5.15;;;2.28;;
21903;SDS011;11116;51.554;7.812;2022-08-04T13:23:34;6.72;;;1.92;;
21903;SDS011;11116;51.554;7.812;2022-08-04T13:26:03;3.60;;;2.10;;
21903;SDS011;11116;51.554;7.812;2022-08-04T13:28:31;5.50;;;2.28;;
21903;SDS011;11116;51.554;7.812;2022-08-04T13:31:00;3.65;;;2.08;;
21903;SDS011;11116;51.554;7.812;2022-08-04T13:33:31;4.50;;;1.90;;
21903;SDS011;11116;51.554;7.812;2022-08-04T13:36:02;5.53;;;1.92;;
21903;SDS011;11116;51.554;7.812;2022-08-04T13:38:32;5.75;;;2.33;;
21903;SDS011;11116;51.554;7.812;2022-08-04T13:41:02;6.10;;;1.95;;
21903;SDS011;11116;51.554;7.812;2022-08-04T13:43:31;5.03;;;1.75;;
21903;SDS011;11116;51.554;7.812;2022-08-04T13:46:05;3.05;;;1.83;;
21903;SDS011;11116;51.554;7.812;2022-08-04T13:48:35;5.30;;;2.20;;
21903;SDS011;11116;51.554;7.812;2022-08-04T13:51:05;7.40;;;2.28;;
21903;SDS011;11116;51.554;7.812;2022-08-04T13:53:35;6.45;;;2.40;;
21903;SDS011;11116;51.554;7.812;2022-08-04T13:56:05;6.95;;;2.08;;
21903;SDS011;11116;51.554;7.812;2022-08-04T13:58:37;8.82;;;2.13;;
21903;SDS011;11116;51.554;7.812;2022-08-04T14:01:08;9.90;;;3.05;;
21903;SDS011;11116;51.554;7.812;2022-08-04T14:03:39;11.38;;;2.17;;
21903;SDS011;11116;51.554;7.812;2022-08-04T14:06:17;8.05;;;2.40;;
21903;SDS011;11116;51.554;7.812;2022-08-04T14:08:49;8.25;;;2.53;;
21903;SDS011;11116;51.554;7.812;2022-08-04T14:11:19;3.15;;;1.98;;
21903;SDS011;11116;51.554;7.812;2022-08-04T14:13:48;5.88;;;2.47;;
21903;SDS011;11116;51.554;7.812;2022-08-04T14:16:16;7.00;;;2.50;;
21903;SDS011;11116;51.554;7.812;2022-08-04T14:18:45;5.07;;;2.20;;
21903;SDS011;11116;51.554;7.812;2022-08-04T14:21:13;5.22;;;2.20;;
21903;SDS011;11116;51.554;7.812;2022-08-04T14:23:43;3.78;;;2.15;;
21903;SDS011;11116;51.554;7.812;2022-08-04T14:26:17;4.50;;;1.90;;
21903;SDS011;11116;51.554;7.812;2022-08-04T14:28:48;9.07;;;3.35;;
21903;SDS011;11116;51.554;7.812;2022-08-04T14:31:17;4.18;;;2.45;;
21903;SDS011;11116;51.554;7.812;2022-08-04T14:33:45;5.00;;;2.08;;
21903;SDS011;11116;51.554;7.812;2022-08-04T14:36:14;5.88;;;2.42;;
21903;SDS011;11116;51.554;7.812;2022-08-04T14:38:47;16.15;;;2.40;;
21903;SDS011;11116;51.554;7.812;2022-08-04T14:41:16;5.85;;;2.85;;
21903;SDS011;11116;51.554;7.812;2022-08-04T14:43:46;8.85;;;2.45;;
21903;SDS011;11116;51.554;7.812;2022-08-04T14:46:14;10.52;;;3.15;;
21903;SDS011;11116;51.554;7.812;2022-08-04T14:51:32;6.50;;;2.47;;
21903;SDS011;11116;51.554;7.812;2022-08-04T14:54:01;4.50;;;2.35;;
21903;SDS011;11116;51.554;7.812;2022-08-04T14:56:28;5.40;;;2.50;;
21903;SDS011;11116;51.554;7.812;2022-08-04T14:58:58;6.57;;;3.08;;
21903;SDS011;11116;51.554;7.812;2022-08-04T15:01:26;9.80;;;3.30;;
21903;SDS011;11116;51.554;7.812;2022-08-04T15:03:54;8.90;;;3.17;;
21903;SDS011;11116;51.554;7.812;2022-08-04T15:06:22;5.35;;;2.65;;
21903;SDS011;11116;51.554;7.812;2022-08-04T15:08:51;9.48;;;2.67;;
21903;SDS011;11116;51.554;7.812;2022-08-04T15:11:21;8.70;;;2.70;;
21903;SDS011;11116;51.554;7.812;2022-08-04T15:13:49;10.23;;;2.58;;
21903;SDS011;11116;51.554;7.812;2022-08-04T15:16:16;6.70;;;2.53;;
21903;SDS011;11116;51.554;7.812;2022-08-04T15:18:43;7.70;;;3.25;;
21903;SDS011;11116;51.554;7.812;2022-08-04T15:21:10;8.40;;;2.55;;
21903;SDS011;11116;51.554;7.812;2022-08-04T15:23:39;7.93;;;2.75;;
21903;SDS011;11116;51.554;7.812;2022-08-04T15:26:08;10.10;;;3.08;;
21903;SDS011;11116;51.554;7.812;2022-08-04T15:28:40;5.80;;;3.40;;
21903;SDS011;11116;51.554;7.812;2022-08-04T15:31:11;8.55;;;2.80;;
21903;SDS011;11116;51.554;7.812;2022-08-04T15:33:41;4.53;;;2.53;;
21903;SDS011;11116;51.554;7.812;2022-08-04T15:36:09;8.30;;;2.47;;
21903;SDS011;11116;51.554;7.812;2022-08-04T15:38:41;4.22;;;2.28;;
21903;SDS011;11116;51.554;7.812;2022-08-04T15:41:19;6.60;;;2.20;;
21903;SDS011;11116;51.554;7.812;2022-08-04T15:43:57;6.70;;;3.10;;
21903;SDS011;11116;51.554;7.812;2022-08-04T15:47:08;6.32;;;3.03;;
21903;SDS011;11116;51.554;7.812;2022-08-04T15:49:37;8.27;;;3.60;;
21903;SDS011;11116;51.554;7.812;2022-08-04T15:52:05;4.50;;;3.00;;
21903;SDS011;11116;51.554;7.812;2022-08-04T15:54:34;7.65;;;3.72;;
21903;SDS011;11116;51.554;7.812;2022-08-04T15:57:01;5.20;;;3.13;;
21903;SDS011;11116;51.554;7.812;2022-08-04T16:02:40;12.18;;;2.67;;
21903;SDS011;11116;51.554;7.812;2022-08-04T16:08:12;5.35;;;3.20;;
21903;SDS011;11116;51.554;7.812;2022-08-04T16:10:41;6.82;;;2.90;;
21903;SDS011;11116;51.554;7.812;2022-08-04T16:13:10;10.38;;;2.72;;